Time;durP1;ratioP1;P1;durP2;ratioP2;P2;SDS_P1;SDS_P2;PMS_P1;PMS_P2;Temp;Humidity;BMP_temperature;BMP_pressure;BME280_temperature;BME280_humidity;BME280_pressure;Samples;Min_cycle;Max_cycle;Signal;HPM_P1;HPM_P2
2023/07/23 00:01:40;;;;;;;16.83;11.38;;;;;;;;;;4979097;28;20308;-61
2023/07/23 00:04:05;;;;;;;13.77;8.80;;;;;;;;;;4980872;28;20214;-61
2023/07/23 00:06:31;;;;;;;11.85;8.85;;;;;;;;;;4980736;28;20802;-61
2023/07/23 00:08:56;;;;;;;12.85;8.60;;;;;;;;;;4982641;28;20665;-61
2023/07/23 00:11:21;;;;;;;14.43;9.80;;;;;;;;;;4981987;28;20216;-61
2023/07/23 00:13:47;;;;;;;13.35;9.30;;;;;;;;;;4975189;28;20287;-61
2023/07/23 00:16:12;;;;;;;13.85;9.30;;;;;;;;;;4973306;28;20343;-61
2023/07/23 00:18:37;;;;;;;15.50;9.77;;;;;;;;;;4974237;28;20205;-61
2023/07/23 00:21:03;;;;;;;15.38;10.20;;;;;;;;;;4981027;28;20315;-61
2023/07/23 00:23:28;;;;;;;14.55;10.60;;;;;;;;;;4980314;28;20313;-62
2023/07/23 00:25:54;;;;;;;13.70;9.15;;;;;;;;;;4982020;28;20304;-61
2023/07/23 00:28:19;;;;;;;13.48;9.23;;;;;;;;;;4982208;28;20255;-61
2023/07/23 00:30:45;;;;;;;14.82;9.38;;;;;;;;;;4980926;28;20213;-62
2023/07/23 00:33:10;;;;;;;13.27;9.02;;;;;;;;;;4980530;28;20211;-61
2023/07/23 00:35:35;;;;;;;13.88;8.73;;;;;;;;;;4978121;28;20229;-61
2023/07/23 00:38:00;;;;;;;15.45;9.85;;;;;;;;;;4983474;28;20270;-61
2023/07/23 00:40:26;;;;;;;16.00;9.90;;;;;;;;;;4988564;28;21610;-61
2023/07/23 00:42:51;;;;;;;14.45;9.15;;;;;;;;;;4991959;28;20619;-61
2023/07/23 00:45:16;;;;;;;16.00;9.23;;;;;;;;;;4991168;28;20356;-61
2023/07/23 00:47:42;;;;;;;16.10;9.40;;;;;;;;;;4988989;28;20259;-61
2023/07/23 00:50:08;;;;;;;13.27;9.13;;;;;;;;;;4973109;28;20743;-62
2023/07/23 00:52:33;;;;;;;12.55;9.10;;;;;;;;;;4974181;28;20209;-61
2023/07/23 00:54:59;;;;;;;11.32;8.15;;;;;;;;;;4989261;28;20229;-61
2023/07/23 00:57:24;;;;;;;12.88;8.85;;;;;;;;;;4990424;28;20564;-61
2023/07/23 00:59:49;;;;;;;13.63;8.93;;;;;;;;;;4974069;28;20232;-61
2023/07/23 01:02:15;;;;;;;12.05;8.65;;;;;;;;;;4989746;28;20244;-61
2023/07/23 01:04:40;;;;;;;12.07;8.40;;;;;;;;;;4989477;28;20291;-61
2023/07/23 01:07:06;;;;;;;11.75;8.35;;;;;;;;;;4990529;28;20328;-61
2023/07/23 01:09:31;;;;;;;11.93;8.00;;;;;;;;;;4973298;28;20228;-61
2023/07/23 01:11:56;;;;;;;16.38;8.85;;;;;;;;;;4971428;28;20351;-61
2023/07/23 01:14:22;;;;;;;12.23;8.25;;;;;;;;;;4972006;28;20727;-60
2023/07/23 01:16:47;;;;;;;12.18;8.50;;;;;;;;;;4991243;28;20327;-61
2023/07/23 01:19:13;;;;;;;13.50;8.30;;;;;;;;;;4989335;28;20240;-61
2023/07/23 01:21:38;;;;;;;12.77;8.07;;;;;;;;;;4989291;28;20676;-61
2023/07/23 01:24:03;;;;;;;13.85;8.32;;;;;;;;;;4990739;28;20679;-61
2023/07/23 01:26:29;;;;;;;11.07;8.10;;;;;;;;;;4990595;28;20217;-61
2023/07/23 01:28:54;;;;;;;13.30;7.90;;;;;;;;;;4988409;28;20216;-61
2023/07/23 01:31:19;;;;;;;11.02;7.85;;;;;;;;;;4990685;28;20275;-61
2023/07/23 01:33:45;;;;;;;11.60;7.65;;;;;;;;;;4991182;28;20221;-61
2023/07/23 01:36:10;;;;;;;10.95;7.60;;;;;;;;;;4969737;28;20221;-61
2023/07/23 01:38:36;;;;;;;11.02;7.53;;;;;;;;;;4972738;28;20213;-61
2023/07/23 01:41:02;;;;;;;11.10;7.28;;;;;;;;;;4990484;28;20221;-61
2023/07/23 01:43:27;;;;;;;12.45;7.63;;;;;;;;;;4988706;28;20255;-61
2023/07/23 01:45:52;;;;;;;11.00;7.20;;;;;;;;;;4989260;28;20795;-61
2023/07/23 01:48:17;;;;;;;11.40;7.63;;;;;;;;;;4990246;28;20705;-61
2023/07/23 01:50:43;;;;;;;14.57;8.82;;;;;;;;;;4989321;28;20221;-61
2023/07/23 01:53:08;;;;;;;14.40;8.57;;;;;;;;;;4988197;28;20309;-61
2023/07/23 01:55:34;;;;;;;13.73;8.32;;;;;;;;;;4990210;28;20693;-61
2023/07/23 01:57:59;;;;;;;9.95;7.47;;;;;;;;;;4989949;28;20216;-61
2023/07/23 02:00:24;;;;;;;13.38;8.27;;;;;;;;;;4988038;28;20221;-61
2023/07/23 02:02:50;;;;;;;12.45;8.05;;;;;;;;;;4989833;28;20217;-61
2023/07/23 02:05:17;;;;;;;10.13;7.85;;;;;;;;;;4989204;28;20259;-61
2023/07/23 02:07:43;;;;;;;11.65;7.85;;;;;;;;;;4989169;28;20217;-61
2023/07/23 02:10:08;;;;;;;14.15;8.30;;;;;;;;;;4988149;28;20228;-61
2023/07/23 02:12:33;;;;;;;12.85;8.82;;;;;;;;;;4989530;28;20213;-61
2023/07/23 02:14:59;;;;;;;12.48;7.57;;;;;;;;;;4990094;28;20225;-61
2023/07/23 02:17:24;;;;;;;11.05;8.00;;;;;;;;;;4987502;28;20213;-61
2023/07/23 02:19:50;;;;;;;13.13;8.35;;;;;;;;;;4989282;28;20223;-61
2023/07/23 02:22:15;;;;;;;10.43;8.23;;;;;;;;;;4989158;28;20303;-61
2023/07/23 02:24:40;;;;;;;13.90;8.00;;;;;;;;;;4987519;28;20296;-61
2023/07/23 02:27:05;;;;;;;12.63;7.47;;;;;;;;;;4987893;28;20204;-61
2023/07/23 02:29:31;;;;;;;13.23;8.30;;;;;;;;;;4989990;28;20209;-61
2023/07/23 02:31:56;;;;;;;10.15;7.93;;;;;;;;;;4988112;28;20213;-61
2023/07/23 02:34:21;;;;;;;11.38;7.60;;;;;;;;;;4987703;28;20320;-61
2023/07/23 02:36:47;;;;;;;9.80;7.22;;;;;;;;;;4989137;28;20213;-61
2023/07/23 02:39:12;;;;;;;12.32;7.65;;;;;;;;;;4988430;28;20214;-61
2023/07/23 02:41:37;;;;;;;11.48;7.93;;;;;;;;;;4987246;28;20687;-62
2023/07/23 02:44:03;;;;;;;12.80;7.93;;;;;;;;;;4988983;28;21030;-61
2023/07/23 02:46:29;;;;;;;10.98;7.88;;;;;;;;;;4988727;28;20604;-61
2023/07/23 02:48:54;;;;;;;12.77;7.90;;;;;;;;;;4988132;28;20296;-61
2023/07/23 02:51:20;;;;;;;12.30;7.80;;;;;;;;;;4988306;28;20213;-61
2023/07/23 02:53:45;;;;;;;11.77;7.78;;;;;;;;;;4988900;28;20759;-62
2023/07/23 02:56:10;;;;;;;10.25;8.00;;;;;;;;;;4988230;28;20592;-61
2023/07/23 02:58:36;;;;;;;10.27;7.38;;;;;;;;;;4987435;28;20217;-61
2023/07/23 03:01:01;;;;;;;10.88;7.35;;;;;;;;;;4988202;28;20213;-61
2023/07/23 03:03:26;;;;;;;12.75;7.57;;;;;;;;;;4989394;28;20217;-61
2023/07/23 03:05:52;;;;;;;12.02;7.53;;;;;;;;;;4987213;28;20209;-61
2023/07/23 03:08:17;;;;;;;12.75;7.97;;;;;;;;;;4987769;28;20267;-61
2023/07/23 03:10:42;;;;;;;12.25;7.80;;;;;;;;;;4989394;28;20229;-61
2023/07/23 03:13:08;;;;;;;11.25;7.53;;;;;;;;;;4987294;28;20209;-61
2023/07/23 03:15:34;;;;;;;10.73;7.20;;;;;;;;;;4987365;28;20279;-61
2023/07/23 03:18:00;;;;;;;14.20;7.57;;;;;;;;;;4988988;28;20217;-61
2023/07/23 03:20:25;;;;;;;10.68;7.85;;;;;;;;;;4988427;28;20209;-61
2023/07/23 03:22:50;;;;;;;13.88;8.18;;;;;;;;;;4986286;28;20225;-61
2023/07/23 03:25:16;;;;;;;12.23;8.30;;;;;;;;;;4988789;28;20216;-61
2023/07/23 03:27:42;;;;;;;13.77;7.90;;;;;;;;;;4989105;28;20275;-61
2023/07/23 03:30:07;;;;;;;11.32;7.40;;;;;;;;;;4985781;28;20212;-61
2023/07/23 03:32:33;;;;;;;9.80;7.03;;;;;;;;;;4988446;28;20673;-60
2023/07/23 03:34:58;;;;;;;9.35;7.22;;;;;;;;;;4970949;28;20229;-61
2023/07/23 03:37:23;;;;;;;11.60;7.20;;;;;;;;;;4988399;28;20213;-61
2023/07/23 03:39:49;;;;;;;10.40;7.28;;;;;;;;;;4994014;28;20213;-61
2023/07/23 03:42:14;;;;;;;9.57;7.28;;;;;;;;;;4994156;28;20288;-60
2023/07/23 03:44:39;;;;;;;11.10;7.50;;;;;;;;;;4995047;28;20267;-61
2023/07/23 03:47:09;;;;;;;8.93;7.03;;;;;;;;;;4992547;28;20651;-61
2023/07/23 03:49:35;;;;;;;8.70;7.15;;;;;;;;;;4994506;28;20217;-61
2023/07/23 03:52:00;;;;;;;11.10;7.30;;;;;;;;;;4995712;28;20230;-61
2023/07/23 03:54:26;;;;;;;10.48;7.30;;;;;;;;;;4992984;28;20228;-61
2023/07/23 03:56:52;;;;;;;10.23;6.90;;;;;;;;;;4993818;28;20213;-60
2023/07/23 03:59:17;;;;;;;12.00;7.25;;;;;;;;;;4984439;28;20217;-61
2023/07/23 04:01:42;;;;;;;11.07;7.60;;;;;;;;;;4977310;28;20889;-61
2023/07/23 04:04:08;;;;;;;11.32;7.63;;;;;;;;;;4977960;28;20223;-61
2023/07/23 04:06:33;;;;;;;9.57;7.22;;;;;;;;;;4985832;28;20223;-61
2023/07/23 04:08:58;;;;;;;12.48;7.38;;;;;;;;;;4985327;28;20601;-61
2023/07/23 04:11:24;;;;;;;9.88;7.35;;;;;;;;;;4981589;28;20589;-61
2023/07/23 04:13:49;;;;;;;11.57;7.60;;;;;;;;;;4985244;28;20631;-61
2023/07/23 04:16:14;;;;;;;11.43;7.03;;;;;;;;;;4985023;28;20590;-61
2023/07/23 04:18:47;;;;;;;13.02;7.80;;;;;;;;;;4982902;28;20317;-61
2023/07/23 04:21:13;;;;;;;11.30;6.82;;;;;;;;;;4962887;28;20213;-61
2023/07/23 04:23:38;;;;;;;10.45;7.20;;;;;;;;;;4976655;28;20220;-61
2023/07/23 04:26:04;;;;;;;9.82;7.45;;;;;;;;;;4977535;28;20255;-61
2023/07/23 04:28:29;;;;;;;10.40;7.50;;;;;;;;;;4984032;28;20308;-61
2023/07/23 04:30:54;;;;;;;11.25;7.43;;;;;;;;;;4984446;28;20303;-61
2023/07/23 04:33:20;;;;;;;9.10;7.18;;;;;;;;;;4983991;28;20225;-61
2023/07/23 04:35:45;;;;;;;11.88;7.55;;;;;;;;;;4984929;28;20589;-61
2023/07/23 04:38:10;;;;;;;10.13;7.25;;;;;;;;;;4982819;28;20395;-61
2023/07/23 04:40:36;;;;;;;13.02;7.35;;;;;;;;;;4984466;28;20370;-61
2023/07/23 04:43:01;;;;;;;13.15;6.22;;;;;;;;;;4979270;28;20209;-61
2023/07/23 04:45:26;;;;;;;9.32;7.03;;;;;;;;;;4974280;28;20215;-61
2023/07/23 04:47:52;;;;;;;12.25;7.13;;;;;;;;;;4977400;28;20320;-61
2023/07/23 04:50:17;;;;;;;11.98;6.53;;;;;;;;;;4979735;28;20254;-61
2023/07/23 04:52:42;;;;;;;12.88;7.10;;;;;;;;;;4980849;28;20232;-61
2023/07/23 04:55:08;;;;;;;12.73;6.40;;;;;;;;;;4979922;28;20221;-62
2023/07/23 04:57:33;;;;;;;12.38;6.07;;;;;;;;;;4982402;28;20224;-62
2023/07/23 04:59:59;;;;;;;8.70;5.85;;;;;;;;;;4980840;28;20574;-62
2023/07/23 05:02:24;;;;;;;9.95;5.95;;;;;;;;;;4979670;28;20295;-62
2023/07/23 05:04:49;;;;;;;9.55;5.80;;;;;;;;;;4978176;28;20751;-62
2023/07/23 05:07:15;;;;;;;13.20;6.05;;;;;;;;;;4973323;28;20225;-61
2023/07/23 05:09:42;;;;;;;11.85;5.72;;;;;;;;;;4975674;28;20209;-62
2023/07/23 05:12:07;;;;;;;12.85;5.80;;;;;;;;;;4978736;28;20228;-62
2023/07/23 05:14:35;;;;;;;9.52;5.70;;;;;;;;;;4980145;28;20221;-62
2023/07/23 05:17:00;;;;;;;10.73;5.28;;;;;;;;;;4980561;28;20244;-62
2023/07/23 05:19:26;;;;;;;9.85;5.60;;;;;;;;;;4981740;28;20245;-62
2023/07/23 05:21:51;;;;;;;8.52;5.40;;;;;;;;;;4980294;28;20618;-62
2023/07/23 05:24:16;;;;;;;8.07;5.45;;;;;;;;;;4979430;28;20841;-62
2023/07/23 05:26:42;;;;;;;9.00;5.05;;;;;;;;;;4980176;28;20305;-62
2023/07/23 05:29:07;;;;;;;8.98;5.55;;;;;;;;;;4982042;28;20209;-62
2023/07/23 05:31:32;;;;;;;9.07;5.25;;;;;;;;;;4987722;28;20221;-62
2023/07/23 05:33:58;;;;;;;11.68;5.20;;;;;;;;;;4990825;28;20308;-62
2023/07/23 05:36:23;;;;;;;8.73;4.50;;;;;;;;;;4989405;28;20248;-62
2023/07/23 05:38:48;;;;;;;8.80;5.35;;;;;;;;;;4989593;28;20677;-62
2023/07/23 05:41:13;;;;;;;10.50;4.78;;;;;;;;;;4988851;28;20316;-61
2023/07/23 05:43:39;;;;;;;12.23;5.05;;;;;;;;;;4972682;28;20222;-62
2023/07/23 05:46:04;;;;;;;10.85;5.00;;;;;;;;;;4989627;28;20240;-62
2023/07/23 05:48:29;;;;;;;10.40;4.85;;;;;;;;;;4973957;28;20245;-62
2023/07/23 05:50:55;;;;;;;12.88;4.85;;;;;;;;;;4972297;28;20272;-61
2023/07/23 05:53:20;;;;;;;12.57;4.97;;;;;;;;;;4976034;28;20610;-62
2023/07/23 05:55:46;;;;;;;8.02;4.60;;;;;;;;;;4978190;28;20303;-61
2023/07/23 05:58:11;;;;;;;10.80;4.40;;;;;;;;;;4979775;28;20292;-62
2023/07/23 06:00:36;;;;;;;7.95;4.65;;;;;;;;;;4980467;28;20589;-61
2023/07/23 06:03:02;;;;;;;7.63;4.70;;;;;;;;;;4978408;28;20216;-61
2023/07/23 06:05:27;;;;;;;8.45;4.93;;;;;;;;;;4980056;28;21008;-61
2023/07/23 06:07:53;;;;;;;10.43;4.88;;;;;;;;;;4980270;28;20213;-61
2023/07/23 06:10:18;;;;;;;7.70;4.60;;;;;;;;;;4972602;28;20213;-61
2023/07/23 06:12:43;;;;;;;14.13;5.65;;;;;;;;;;4970657;28;20237;-61
2023/07/23 06:15:09;;;;;;;10.40;4.60;;;;;;;;;;4972585;28;20319;-62
2023/07/23 06:17:34;;;;;;;9.77;4.85;;;;;;;;;;4979301;28;20264;-62
2023/07/23 06:20:00;;;;;;;8.77;4.53;;;;;;;;;;4977664;28;20691;-62
2023/07/23 06:22:25;;;;;;;12.70;4.70;;;;;;;;;;4979032;28;20308;-61
2023/07/23 06:24:51;;;;;;;9.95;4.53;;;;;;;;;;4980146;28;20303;-61
2023/07/23 06:27:16;;;;;;;12.20;4.40;;;;;;;;;;4978530;28;20727;-61
2023/07/23 06:29:41;;;;;;;8.83;4.97;;;;;;;;;;4977118;28;20436;-62
2023/07/23 06:32:07;;;;;;;9.63;4.85;;;;;;;;;;4974095;28;20217;-61
2023/07/23 06:34:33;;;;;;;10.65;4.82;;;;;;;;;;4970981;28;20228;-61
2023/07/23 06:36:58;;;;;;;9.48;4.70;;;;;;;;;;4961597;28;20250;-61
2023/07/23 06:39:23;;;;;;;9.75;4.50;;;;;;;;;;4964050;28;20216;-61
2023/07/23 06:41:49;;;;;;;10.80;4.90;;;;;;;;;;4967693;28;20232;-61
2023/07/23 06:44:14;;;;;;;9.05;4.78;;;;;;;;;;4968431;28;20209;-61
2023/07/23 06:46:39;;;;;;;6.97;4.70;;;;;;;;;;4952351;28;20233;-62
2023/07/23 06:49:05;;;;;;;9.10;4.78;;;;;;;;;;4955135;28;20209;-62
2023/07/23 06:51:30;;;;;;;9.50;4.63;;;;;;;;;;4954879;28;20255;-62
2023/07/23 06:53:55;;;;;;;7.75;4.80;;;;;;;;;;4950213;28;20209;-61
2023/07/23 06:56:21;;;;;;;9.82;4.80;;;;;;;;;;4947903;28;20229;-62
2023/07/23 06:58:46;;;;;;;9.68;5.22;;;;;;;;;;4945911;28;20430;-61
2023/07/23 07:01:11;;;;;;;14.00;5.40;;;;;;;;;;4944395;28;20209;-62
2023/07/23 07:03:37;;;;;;;7.57;4.80;;;;;;;;;;4956246;28;21212;-62
2023/07/23 07:06:03;;;;;;;7.30;4.63;;;;;;;;;;4957278;28;20243;-62
2023/07/23 07:08:29;;;;;;;8.88;5.30;;;;;;;;;;4962622;28;20209;-62
2023/07/23 07:10:58;;;;;;;8.82;4.70;;;;;;;;;;4963484;28;20583;-62
2023/07/23 07:13:23;;;;;;;12.82;5.47;;;;;;;;;;4962123;28;20545;-63
2023/07/23 07:15:48;;;;;;;15.25;5.28;;;;;;;;;;4963315;28;20229;-63
2023/07/23 07:18:14;;;;;;;12.10;4.72;;;;;;;;;;4961410;28;20225;-63
2023/07/23 07:20:39;;;;;;;8.45;4.85;;;;;;;;;;4962711;28;20363;-63
2023/07/23 07:23:04;;;;;;;9.63;5.22;;;;;;;;;;4956387;28;20209;-63
2023/07/23 07:25:29;;;;;;;9.32;4.90;;;;;;;;;;4953895;28;20267;-62
2023/07/23 07:27:55;;;;;;;10.13;4.90;;;;;;;;;;4956602;28;20224;-63
2023/07/23 07:30:20;;;;;;;8.52;5.10;;;;;;;;;;4960714;28;20222;-65
2023/07/23 07:32:45;;;;;;;11.55;5.70;;;;;;;;;;4962540;28;20574;-63
2023/07/23 07:35:11;;;;;;;8.02;5.43;;;;;;;;;;4961056;28;20261;-62
2023/07/23 07:37:36;;;;;;;8.15;5.38;;;;;;;;;;4964110;28;20305;-62
2023/07/23 07:40:01;;;;;;;10.18;5.40;;;;;;;;;;4962533;28;20216;-62
2023/07/23 07:42:27;;;;;;;7.47;5.43;;;;;;;;;;4961074;28;20224;-62
2023/07/23 07:44:52;;;;;;;7.97;5.38;;;;;;;;;;4959768;28;20735;-63
2023/07/23 07:47:17;;;;;;;7.35;5.18;;;;;;;;;;4971720;28;20237;-63
2023/07/23 07:49:43;;;;;;;9.57;5.20;;;;;;;;;;4972818;28;20636;-61
2023/07/23 07:52:08;;;;;;;10.43;5.80;;;;;;;;;;4978116;28;20205;-62
2023/07/23 07:54:35;;;;;;;8.50;5.68;;;;;;;;;;4982940;28;20244;-62
2023/07/23 07:57:00;;;;;;;8.32;5.32;;;;;;;;;;4974381;28;20213;-62
2023/07/23 07:59:26;;;;;;;8.38;5.13;;;;;;;;;;4978551;28;20232;-61
2023/07/23 08:01:51;;;;;;;9.65;5.70;;;;;;;;;;4982432;28;20225;-62
2023/07/23 08:04:17;;;;;;;10.05;5.50;;;;;;;;;;4981857;28;20771;-61
2023/07/23 08:06:42;;;;;;;9.50;5.72;;;;;;;;;;4979124;28;20240;-61
2023/07/23 08:09:08;;;;;;;9.20;5.22;;;;;;;;;;4945882;28;20300;-62
2023/07/23 08:11:34;;;;;;;10.32;5.40;;;;;;;;;;4973998;28;20646;-61
2023/07/23 08:13:59;;;;;;;9.10;5.60;;;;;;;;;;4923755;28;20275;-62
2023/07/23 08:16:24;;;;;;;8.88;5.72;;;;;;;;;;4976727;28;20252;-62
2023/07/23 08:18:50;;;;;;;9.93;5.85;;;;;;;;;;4982391;28;20288;-62
2023/07/23 08:21:17;;;;;;;10.00;6.10;;;;;;;;;;4979819;28;20217;-62
2023/07/23 08:23:42;;;;;;;11.57;5.90;;;;;;;;;;4980091;28;20256;-62
2023/07/23 08:26:08;;;;;;;10.50;5.85;;;;;;;;;;4980946;28;20672;-62
2023/07/23 08:28:35;;;;;;;8.98;5.43;;;;;;;;;;4985411;28;20261;-62
2023/07/23 08:31:01;;;;;;;9.48;5.43;;;;;;;;;;4972189;28;21014;-61
2023/07/23 08:33:28;;;;;;;10.27;5.57;;;;;;;;;;4978242;28;20225;-62
2023/07/23 08:35:54;;;;;;;8.68;6.07;;;;;;;;;;4978468;28;20225;-61
2023/07/23 08:38:19;;;;;;;11.02;6.20;;;;;;;;;;4980242;28;20220;-61
2023/07/23 08:40:45;;;;;;;10.25;5.85;;;;;;;;;;4983161;28;20205;-62
2023/07/23 08:43:17;;;;;;;9.05;6.22;;;;;;;;;;4984582;28;20300;-61
2023/07/23 08:45:43;;;;;;;9.38;5.72;;;;;;;;;;4984895;28;20232;-62
2023/07/23 08:48:16;;;;;;;9.85;5.82;;;;;;;;;;4982525;28;20250;-62
2023/07/23 08:50:43;;;;;;;7.95;5.97;;;;;;;;;;4985385;28;20240;-61
2023/07/23 08:53:09;;;;;;;9.13;6.25;;;;;;;;;;4978078;28;20217;-61
2023/07/23 08:55:35;;;;;;;10.00;5.90;;;;;;;;;;4975780;28;20233;-61
2023/07/23 08:58:00;;;;;;;9.85;6.00;;;;;;;;;;4976558;28;20221;-61
2023/07/23 09:00:27;;;;;;;10.97;7.13;;;;;;;;;;4978986;28;20441;-62
2023/07/23 09:02:53;;;;;;;9.25;6.30;;;;;;;;;;4985502;28;20252;-61
2023/07/23 09:05:18;;;;;;;11.13;6.30;;;;;;;;;;4983256;28;21022;-61
2023/07/23 09:07:43;;;;;;;9.60;6.10;;;;;;;;;;4985377;28;20329;-61
2023/07/23 09:10:09;;;;;;;10.88;6.43;;;;;;;;;;4985207;28;20217;-60
2023/07/23 09:12:36;;;;;;;12.77;6.82;;;;;;;;;;4982593;28;20235;-60
2023/07/23 09:15:03;;;;;;;10.35;6.28;;;;;;;;;;4963794;28;20235;-60
2023/07/23 09:17:28;;;;;;;8.98;6.22;;;;;;;;;;4976203;28;20232;-61
2023/07/23 09:19:54;;;;;;;8.75;6.20;;;;;;;;;;4976138;28;20569;-62
2023/07/23 09:22:19;;;;;;;13.98;6.45;;;;;;;;;;4978324;28;20243;-61
2023/07/23 09:24:45;;;;;;;11.35;5.55;;;;;;;;;;4985209;28;20581;-61
2023/07/23 09:27:11;;;;;;;11.27;5.55;;;;;;;;;;4983582;28;20634;-61
2023/07/23 09:29:37;;;;;;;9.82;5.35;;;;;;;;;;4982805;28;20217;-61
2023/07/23 09:32:02;;;;;;;8.85;5.22;;;;;;;;;;4984597;28;20223;-61
2023/07/23 09:34:27;;;;;;;9.63;5.20;;;;;;;;;;4984474;28;20209;-63
2023/07/23 09:36:54;;;;;;;8.85;4.63;;;;;;;;;;4982930;28;20295;-62
2023/07/23 09:39:20;;;;;;;6.03;4.15;;;;;;;;;;4975704;28;20247;-62
2023/07/23 09:41:45;;;;;;;6.47;4.07;;;;;;;;;;4976596;28;20229;-62
2023/07/23 09:44:11;;;;;;;7.30;4.95;;;;;;;;;;4960068;28;20303;-62
2023/07/23 09:46:37;;;;;;;7.55;4.18;;;;;;;;;;4980957;28;20264;-63
2023/07/23 09:49:02;;;;;;;6.75;4.28;;;;;;;;;;4983249;28;20215;-63
2023/07/23 09:51:28;;;;;;;7.53;4.47;;;;;;;;;;4982599;28;20213;-62
2023/07/23 09:53:53;;;;;;;6.80;4.70;;;;;;;;;;4982917;28;20217;-62
2023/07/23 09:56:19;;;;;;;7.15;4.30;;;;;;;;;;4982090;28;20604;-62
2023/07/23 09:58:46;;;;;;;8.10;3.90;;;;;;;;;;4982362;28;20216;-61
2023/07/23 10:01:12;;;;;;;6.93;3.90;;;;;;;;;;4977272;28;20299;-62
2023/07/23 10:03:37;;;;;;;7.80;4.32;;;;;;;;;;4974681;28;20572;-62
2023/07/23 10:06:03;;;;;;;6.43;3.67;;;;;;;;;;4976562;28;20427;-62
2023/07/23 10:08:28;;;;;;;6.90;3.92;;;;;;;;;;4981868;28;20224;-62
2023/07/23 10:10:53;;;;;;;6.65;4.00;;;;;;;;;;4981295;28;20849;-62
2023/07/23 10:13:19;;;;;;;5.30;3.55;;;;;;;;;;4983741;28;20736;-63
2023/07/23 10:15:44;;;;;;;6.00;3.78;;;;;;;;;;4984219;28;20264;-63
2023/07/23 10:18:10;;;;;;;5.93;3.58;;;;;;;;;;4958192;28;20544;-62
2023/07/23 10:20:35;;;;;;;6.97;3.70;;;;;;;;;;4965929;28;20232;-62
2023/07/23 10:23:05;;;;;;;6.45;3.58;;;;;;;;;;4952942;28;20685;-60
2023/07/23 10:25:30;;;;;;;5.38;3.58;;;;;;;;;;4975109;28;20243;-62
2023/07/23 10:27:57;;;;;;;6.65;3.90;;;;;;;;;;4974789;28;20213;-62
2023/07/23 10:30:22;;;;;;;4.88;3.28;;;;;;;;;;4978005;28;20535;-63
2023/07/23 10:33:08;;;;;;;5.40;3.63;;;;;;;;;;4984188;28;20228;-62
2023/07/23 10:35:48;;;;;;;8.43;5.22;;;;;;;;;;4981113;28;20240;-62
2023/07/23 10:38:28;;;;;;;5.30;3.15;;;;;;;;;;4980779;28;20213;-62
2023/07/23 10:40:53;;;;;;;4.95;2.70;;;;;;;;;;4982831;28;20247;-63
2023/07/23 10:43:19;;;;;;;6.72;3.47;;;;;;;;;;4982922;28;20525;-63
2023/07/23 10:46:01;;;;;;;6.43;3.17;;;;;;;;;;4977674;28;20291;-63
2023/07/23 10:48:36;;;;;;;3.50;2.60;;;;;;;;;;4955483;28;20201;-64
2023/07/23 10:51:01;;;;;;;4.30;2.58;;;;;;;;;;4957667;28;20266;-63
2023/07/23 10:53:30;;;;;;;3.65;2.70;;;;;;;;;;4980001;28;20217;-63
2023/07/23 10:55:55;;;;;;;3.42;2.20;;;;;;;;;;4981267;28;20229;-63
2023/07/23 10:58:21;;;;;;;3.30;2.40;;;;;;;;;;4967533;28;20640;-63
2023/07/23 11:00:47;;;;;;;2.58;2.20;;;;;;;;;;4984269;28;20259;-63
2023/07/23 11:03:13;;;;;;;2.90;2.50;;;;;;;;;;4983561;28;20707;-62
2023/07/23 11:05:39;;;;;;;4.72;3.30;;;;;;;;;;4980608;28;20205;-63
2023/07/23 11:08:11;;;;;;;4.80;3.42;;;;;;;;;;4963634;28;20275;-63
2023/07/23 11:10:44;;;;;;;4.53;2.42;;;;;;;;;;4977983;28;20602;-63
2023/07/23 11:13:09;;;;;;;4.85;2.30;;;;;;;;;;4959963;28;20213;-63
2023/07/23 11:15:34;;;;;;;5.57;2.55;;;;;;;;;;4981407;28;20242;-63
2023/07/23 11:18:00;;;;;;;3.72;2.60;;;;;;;;;;4985954;28;20223;-63
2023/07/23 11:20:25;;;;;;;3.55;2.47;;;;;;;;;;4984736;28;20832;-62
2023/07/23 11:22:52;;;;;;;3.88;2.58;;;;;;;;;;4985975;28;20217;-63
2023/07/23 11:25:17;;;;;;;4.40;2.95;;;;;;;;;;4985643;28;20757;-62
2023/07/23 11:27:43;;;;;;;3.80;2.60;;;;;;;;;;4985098;28;20747;-62
2023/07/23 11:30:11;;;;;;;3.88;2.75;;;;;;;;;;4967916;28;20212;-62
2023/07/23 11:32:36;;;;;;;4.35;2.95;;;;;;;;;;4977862;28;20283;-62
2023/07/23 11:35:03;;;;;;;4.15;2.72;;;;;;;;;;4958931;28;20237;-61
2023/07/23 11:37:28;;;;;;;6.18;2.90;;;;;;;;;;4979769;28;20224;-62
2023/07/23 11:39:55;;;;;;;4.60;3.00;;;;;;;;;;4984530;28;20213;-62
2023/07/23 11:42:20;;;;;;;4.78;3.10;;;;;;;;;;4984687;28;20857;-62
2023/07/23 11:45:01;;;;;;;4.35;3.30;;;;;;;;;;4985673;28;20296;-62
2023/07/23 11:47:27;;;;;;;5.80;3.40;;;;;;;;;;4984875;28;20260;-63
2023/07/23 11:49:52;;;;;;;5.10;3.50;;;;;;;;;;4985420;28;20268;-62
2023/07/23 11:52:24;;;;;;;7.40;3.85;;;;;;;;;;4985536;28;20631;-63
2023/07/23 11:54:49;;;;;;;5.88;3.88;;;;;;;;;;4977901;28;20233;-63
2023/07/23 11:57:16;;;;;;;5.57;3.97;;;;;;;;;;4977482;28;20288;-62
2023/07/23 11:59:42;;;;;;;5.40;4.40;;;;;;;;;;4981801;28;20244;-62
2023/07/23 12:02:08;;;;;;;5.30;4.00;;;;;;;;;;4986668;28;20216;-63
2023/07/23 12:04:39;;;;;;;6.13;4.15;;;;;;;;;;4989714;28;20308;-62
2023/07/23 12:07:06;;;;;;;6.07;4.47;;;;;;;;;;4988702;28;20217;-62
2023/07/23 12:09:33;;;;;;;8.02;4.60;;;;;;;;;;4988434;28;20993;-62
2023/07/23 12:11:58;;;;;;;5.63;4.47;;;;;;;;;;4989178;28;20246;-62
2023/07/23 12:14:23;;;;;;;5.72;4.40;;;;;;;;;;4988819;28;20351;-62
2023/07/23 12:16:50;;;;;;;6.78;4.63;;;;;;;;;;4983779;28;20209;-62
2023/07/23 12:19:16;;;;;;;6.32;4.70;;;;;;;;;;4981029;28;20331;-62
2023/07/23 12:21:43;;;;;;;6.57;4.80;;;;;;;;;;4981555;28;20217;-62
2023/07/23 12:24:15;;;;;;;7.88;4.88;;;;;;;;;;4984826;28;20213;-62
2023/07/23 12:26:41;;;;;;;6.90;4.72;;;;;;;;;;4989592;28;20217;-61
2023/07/23 12:29:06;;;;;;;8.00;4.80;;;;;;;;;;4988667;28;20212;-62
2023/07/23 12:31:34;;;;;;;6.10;4.60;;;;;;;;;;4988864;28;20881;-62
2023/07/23 12:34:00;;;;;;;5.72;4.30;;;;;;;;;;4988834;28;20688;-62
2023/07/23 12:36:25;;;;;;;8.02;4.53;;;;;;;;;;4988180;28;20271;-62
2023/07/23 12:38:50;;;;;;;7.07;4.70;;;;;;;;;;4985240;28;20241;-62
2023/07/23 12:41:17;;;;;;;6.05;4.50;;;;;;;;;;4980404;28;20229;-61
2023/07/23 12:43:42;;;;;;;5.55;4.10;;;;;;;;;;4980182;28;20747;-61
2023/07/23 12:46:07;;;;;;;6.03;4.60;;;;;;;;;;4982796;28;20240;-62
2023/07/23 12:48:32;;;;;;;7.32;4.60;;;;;;;;;;4988834;28;20324;-61
2023/07/23 12:50:58;;;;;;;5.72;4.20;;;;;;;;;;4987956;28;20209;-61
2023/07/23 12:53:23;;;;;;;6.65;4.50;;;;;;;;;;4987913;28;20213;-62
2023/07/23 12:55:48;;;;;;;6.75;4.45;;;;;;;;;;4992152;28;20237;-62
2023/07/23 12:58:14;;;;;;;7.00;4.70;;;;;;;;;;4988456;28;20235;-61
2023/07/23 13:00:39;;;;;;;7.07;4.55;;;;;;;;;;4992007;28;20209;-62
2023/07/23 13:03:05;;;;;;;7.78;5.00;;;;;;;;;;4991385;28;20221;-62
2023/07/23 13:05:33;;;;;;;6.47;5.05;;;;;;;;;;4989135;28;20213;-61
2023/07/23 13:07:59;;;;;;;7.45;4.50;;;;;;;;;;4989988;28;20235;-62
2023/07/23 13:10:24;;;;;;;7.25;4.60;;;;;;;;;;4989822;28;20566;-61
2023/07/23 13:12:49;;;;;;;9.77;4.90;;;;;;;;;;4989603;28;20655;-62
2023/07/23 13:15:15;;;;;;;7.75;4.95;;;;;;;;;;4988895;28;20224;-62
2023/07/23 13:17:40;;;;;;;9.35;4.60;;;;;;;;;;4991298;28;20209;-62
2023/07/23 13:20:05;;;;;;;9.15;4.60;;;;;;;;;;4990199;28;20217;-61
2023/07/23 13:22:31;;;;;;;8.02;4.90;;;;;;;;;;4988658;28;20224;-61
2023/07/23 13:24:56;;;;;;;6.18;4.40;;;;;;;;;;4990823;28;20209;-62
2023/07/23 13:27:21;;;;;;;5.95;4.60;;;;;;;;;;4989948;28;20296;-61
2023/07/23 13:29:47;;;;;;;7.13;4.63;;;;;;;;;;4989889;28;20209;-61
2023/07/23 13:32:12;;;;;;;8.07;4.57;;;;;;;;;;4989566;28;20607;-61
2023/07/23 13:34:38;;;;;;;5.85;4.40;;;;;;;;;;4989935;28;20217;-61
2023/07/23 13:37:03;;;;;;;5.70;4.28;;;;;;;;;;4989980;28;20209;-62
2023/07/23 13:39:28;;;;;;;6.30;4.90;;;;;;;;;;4988776;28;20323;-63
2023/07/23 13:41:55;;;;;;;7.03;4.18;;;;;;;;;;4989624;28;20228;-61
2023/07/23 13:44:20;;;;;;;6.90;4.30;;;;;;;;;;4979364;28;20319;-61
2023/07/23 13:46:46;;;;;;;7.40;4.53;;;;;;;;;;4981079;28;20343;-62
2023/07/23 13:49:12;;;;;;;6.50;4.68;;;;;;;;;;4982807;28;20217;-62
2023/07/23 13:51:37;;;;;;;6.68;4.45;;;;;;;;;;4977524;28;20221;-62
2023/07/23 13:54:02;;;;;;;7.05;4.63;;;;;;;;;;4974841;28;20251;-62
2023/07/23 13:56:28;;;;;;;8.43;4.35;;;;;;;;;;4972958;28;21334;-62
2023/07/23 13:58:54;;;;;;;7.82;4.00;;;;;;;;;;4978903;28;20300;-62
2023/07/23 14:01:19;;;;;;;7.25;4.38;;;;;;;;;;4980855;28;20220;-62
2023/07/23 14:03:45;;;;;;;6.40;4.30;;;;;;;;;;4981811;28;20703;-62
2023/07/23 14:06:10;;;;;;;6.47;4.28;;;;;;;;;;4982909;28;20676;-62
2023/07/23 14:08:36;;;;;;;7.00;4.38;;;;;;;;;;4982955;28;20243;-62
2023/07/23 14:11:01;;;;;;;5.50;4.30;;;;;;;;;;4977515;28;20217;-62
2023/07/23 14:13:27;;;;;;;7.30;4.43;;;;;;;;;;4981051;28;20411;-62
2023/07/23 14:15:53;;;;;;;6.10;4.03;;;;;;;;;;4974706;28;20930;-62
2023/07/23 14:18:18;;;;;;;7.13;3.88;;;;;;;;;;4971816;28;20220;-62
2023/07/23 14:20:44;;;;;;;5.93;3.80;;;;;;;;;;4977268;28;20311;-62
2023/07/23 14:23:09;;;;;;;6.63;4.05;;;;;;;;;;4982726;28;20216;-62
2023/07/23 14:25:35;;;;;;;6.55;4.20;;;;;;;;;;4982092;28;20294;-62
2023/07/23 14:28:00;;;;;;;7.32;4.25;;;;;;;;;;4981448;28;20877;-62
2023/07/23 14:30:26;;;;;;;7.30;4.50;;;;;;;;;;4982476;28;20314;-62